VEAT METAR and TAF | Updated Today

VEAT METAR

Agartala Airport

Observation time: 5:41 hr. ago

VEAT 061430Z 00000KT 3500 BR FEW020 SCT100 26/25 Q1011 NOSIG

Need help? Read our tutorial on how to read METARs or read the parsed version below.

Agartala Airport (VEAT) METAR

  • Weather conditions on Thu, 06 Oct 2022 14:30:00 +0000 (5:41 hr. ago):
  • Present conditions: Mist
  • Clouds: A few at 610 meters; scattered at 3048 meters
  • Visibility: 3500 meters
  • Wind: Calm
  • Temperature: 26 celsius
  • Dew point: 25 celsius
  • Pressure: 1011 millibars
  • Remarks: None


Useful to know...

VEAT TAF

Agartala Airport

TAF VEAT 061700Z 0618/0703 00000KT 3000 -RA BR SCT018 BKN100
Observation time: 3:11 hr. ago
Need help? Read our tutorial on how to read TAFs or read the parsed version below.

Parsed version of TAF for Agartala Airport (VEAT)

  • From 06 October at 18:00 UTC, to day 07 of the month at 03:00 UTC
  • Clouds: Scattered at 549 meters; broken sky at 3048 meters
  • Visibility: 3000 meters
  • Other: Light rain; mist

Airports near VEAT

VGCM Weather
Region: Comilla

Comilla Airport

Not found in our database